Grapefield, Virginia
Current Conditions -  °F | °C
As of 8:52 PM on Sunday 25 Jan 2015 (Local Time) from KBLF Reporting Station
Overcast Overcast  
Wind Chill: 42°   Ceiling: 6500
Heat Index: 44°   Visibility: 10mi
Dew Point: 28°   Wind: 5mph
Humidity: 53%   Direction: 160°SSE
Pressure: 29.71"   Gusts: NA
Location:  37.1593°N, 81.1986°W
Report Text: KBLF 260152Z AUTO 16004KT 10SM OVC065 07/M02 A2971 RMK AO2 SLP065 T00671022
Loading
Personal Weather Stations






























Interactive Weather Map New forecast layout! Learn more

10-Day Weather Forecast

Advertisements
Track Severe Weather on mobile